Conception — WYR8548 — position and weather

sailwx.info

Track history (hours):
 
Tides and Currents Weather Stations Pressure Air Temp Water Temp Dewpoint Dewpoint Depression Visibility Wind Speed Wind Dir Waves Ship Positions

Conception

Owner: TRUTH AQUATICS, SANTA BARBARA, CA. More information available from US FCC via Universal Licensing System and Coast Guard Vessel Documentation Center.

Last reported at 2018-Apr-23 07:04 UTC. Time now 2018-Apr-23 07:54 UTC.
Position N 34°24' W 119°41'.

Length 24 m.

Type: Diving. MMSI: 367098480.

Date/timePositionNaut miles runAvg speedWind from/ knotsBaromVisibWave heightAir tempDewpointWater temp
2018-Apr-23 07:04N 34°24' W 119°41'0 0.0
2018-Apr-23 07:01N 34°24' W 119°41'0 0.0
2018-Apr-23 05:37N 34°24' W 119°41'0 0.0
2018-Apr-23 05:30N 34°24' W 119°41'0 0.0
2018-Apr-23 04:43N 34°24' W 119°41'0 0.0
2018-Apr-23 03:25N 34°24' W 119°41'0 0.0
2018-Apr-23 01:12N 34°24' W 119°41'0 0.0
2018-Apr-23 00:45N 34°24' W 119°41'0 0.0
2018-Apr-23 00:15N 34°24' W 119°41'0 0.1
2018-Apr-22 23:53N 34°24' W 119°41'3 7.6
2018-Apr-22 23:29N 34°21' W 119°41'510.2
2018-Apr-22 22:59N 34°16' W 119°42'510.4
2018-Apr-22 22:28N 34°11' W 119°43'510.3
2018-Apr-22 22:00N 34°06' W 119°45'3 4.5
2018-Apr-22 21:19N 34°03' W 119°45'0 0.0
2018-Apr-22 20:52N 34°03' W 119°45'0 0.0
2018-Apr-22 20:28N 34°03' W 119°45'0 0.0
2018-Apr-22 19:58N 34°03' W 119°45'0 0.0
2018-Apr-22 19:13N 34°03' W 119°45'0 0.0
2018-Apr-22 18:58N 34°03' W 119°45'0 0.0
2018-Apr-22 18:25N 34°03' W 119°45'0 0.0
2018-Apr-22 17:55N 34°03' W 119°45'0 0.0
2018-Apr-22 17:19N 34°03' W 119°45'0 0.0
2018-Apr-22 16:46N 34°03' W 119°45'0 0.0
2018-Apr-22 16:28N 34°03' W 119°45'0 0.0
2018-Apr-22 15:58N 34°03' W 119°45'0 0.0
2018-Apr-22 15:28N 34°03' W 119°45'1 3.1
2018-Apr-22 15:00N 34°03' W 119°44'5 9.4
2018-Apr-22 14:30N 34°03' W 119°38'5 9.5
2018-Apr-22 14:00N 34°03' W 119°32'1 0.1
2018-Apr-22 03:44N 34°02' W 119°31'0 1.0
2018-Apr-22 03:27N 34°02' W 119°31'4 0.3
2018-Apr-21 13:12N 34°05' W 119°34'210.0
2018-Apr-21 13:00N 34°07' W 119°34'5 9.8
2018-Apr-21 12:30N 34°12' W 119°35'6 9.8
2018-Apr-21 11:54N 34°17' W 119°38'6 9.9
2018-Apr-21 11:17N 34°23' W 119°40'2 1.9
2018-Apr-21 10:19N 34°24' W 119°41'0 0.0
2018-Apr-21 09:31N 34°24' W 119°41'0 0.0
2018-Apr-21 09:10N 34°24' W 119°41'0 0.0
2018-Apr-21 08:13N 34°24' W 119°41'0 0.0
2018-Apr-21 07:55N 34°24' W 119°41'0 0.0
2018-Apr-21 01:42N 34°24' W 119°41'0 0.0
2018-Apr-21 00:46N 34°24' W 119°41'0 0.0
2018-Apr-21 00:16N 34°24' W 119°41'0 0.0
2018-Apr-20 22:18N 34°24' W 119°41'0 0.0
2018-Apr-20 17:57N 34°24' W 119°41'0 0.0
2018-Apr-20 15:15N 34°24' W 119°41'0 0.0
2018-Apr-20 12:27N 34°24' W 119°41'0 0.0
2018-Apr-20 09:54N 34°24' W 119°41'0 0.0
2018-Apr-20 08:42N 34°24' W 119°41'0 0.0
2018-Apr-20 08:09N 34°24' W 119°41'0 0.0
2018-Apr-20 07:51N 34°24' W 119°41'0 0.0
2018-Apr-20 07:21N 34°24' W 119°41'0 0.0
2018-Apr-19 17:45N 34°24' W 119°41'0 0.0
2018-Apr-19 15:42N 34°24' W 119°41'0 0.0
2018-Apr-19 15:12N 34°24' W 119°41'0 0.0
2018-Apr-19 14:45N 34°24' W 119°41'0 0.0
2018-Apr-19 14:15N 34°24' W 119°41'0 0.0
2018-Apr-19 12:57N 34°24' W 119°41'0 0.0
2018-Apr-19 07:42N 34°24' W 119°41'0 0.0
2018-Apr-18 23:57N 34°24' W 119°41'0 0.0
2018-Apr-18 21:54N 34°24' W 119°41'0 0.0
2018-Apr-18 21:30N 34°24' W 119°41'0 0.0
2018-Apr-18 20:15N 34°24' W 119°41'0 0.0
2018-Apr-18 16:48N 34°24' W 119°41'0 0.0
2018-Apr-18 16:30N 34°24' W 119°41'0 0.0
2018-Apr-18 15:24N 34°24' W 119°41'0 0.0
2018-Apr-18 15:00N 34°24' W 119°41'0 0.0
2018-Apr-18 13:48N 34°24' W 119°41'0 0.0
2018-Apr-18 11:00N 34°24' W 119°41'0 0.0
2018-Apr-18 10:21N 34°24' W 119°41'0 0.0
2018-Apr-18 10:00N 34°24' W 119°41'0 0.0
2018-Apr-18 09:09N 34°24' W 119°41'0 0.0
2018-Apr-18 09:00N 34°24' W 119°41'0 0.0
2018-Apr-18 07:21N 34°24' W 119°41'0 0.0
2018-Apr-18 05:54N 34°24' W 119°41'0 0.0
2018-Apr-18 05:24N 34°24' W 119°41'0 0.0
2018-Apr-18 04:09N 34°24' W 119°41'0 0.0
2018-Apr-18 02:57N 34°24' W 119°41'0 0.0
2018-Apr-18 00:18N 34°24' W 119°41'0 0.0
2018-Apr-17 19:00N 34°24' W 119°41'0 0.0
2018-Apr-17 18:27N 34°24' W 119°41'0 0.0
2018-Apr-17 11:51N 34°24' W 119°41'0 0.0
2018-Apr-17 10:12N 34°24' W 119°41'0 0.0
2018-Apr-17 09:12N 34°24' W 119°41'0 0.0
2018-Apr-16 20:09N 34°24' W 119°41'0 0.0
2018-Apr-16 15:36N 34°24' W 119°41'0 0.0
2018-Apr-16 12:12N 34°24' W 119°41'0 0.0
2018-Apr-16 11:57N 34°24' W 119°41'0 0.0
2018-Apr-16 11:21N 34°24' W 119°41'0 0.0
2018-Apr-16 09:23N 34°24' W 119°41'0 0.0
2018-Apr-16 08:56N 34°24' W 119°41'0 0.0
2018-Apr-16 07:59N 34°24' W 119°41'0 0.0
2018-Apr-16 06:02N 34°24' W 119°41'0 0.0
2018-Apr-16 05:53N 34°24' W 119°41'0 0.0
2018-Apr-16 04:35N 34°24' W 119°41'0 0.0
2018-Apr-16 04:23N 34°24' W 119°41'0 0.0
2018-Apr-16 03:53N 34°24' W 119°41'0 0.0
2018-Apr-16 02:23N 34°24' W 119°41'0 0.0
2018-Apr-16 01:56N 34°24' W 119°41'0 0.0
2018-Apr-15 23:44N 34°24' W 119°41'0 0.0
2018-Apr-15 22:05N 34°24' W 119°41'0 0.0
2018-Apr-15 21:59N 34°24' W 119°41'0 0.0
2018-Apr-15 20:47N 34°24' W 119°41'0 0.0
2018-Apr-15 20:11N 34°24' W 119°41'0 0.0
2018-Apr-15 19:41N 34°24' W 119°41'0 0.0
2018-Apr-15 18:32N 34°24' W 119°41'0 0.0
2018-Apr-15 18:11N 34°24' W 119°41'0 0.0
2018-Apr-15 17:50N 34°24' W 119°41'0 0.0
2018-Apr-15 17:26N 34°24' W 119°41'0 0.0
2018-Apr-15 16:53N 34°24' W 119°41'0 0.0
2018-Apr-15 16:26N 34°24' W 119°41'0 0.0
2018-Apr-15 15:53N 34°24' W 119°41'0 0.0
2018-Apr-15 15:26N 34°24' W 119°41'0 0.0
2018-Apr-15 14:47N 34°24' W 119°41'0 0.0
2018-Apr-15 14:08N 34°24' W 119°41'0 0.0
2018-Apr-15 13:08N 34°24' W 119°41'0 0.0
2018-Apr-15 12:53N 34°24' W 119°41'0 0.0
2018-Apr-15 12:29N 34°24' W 119°41'0 0.0
2018-Apr-15 10:32N 34°24' W 119°41'0 0.0
2018-Apr-15 09:11N 34°24' W 119°41'0 0.0
2018-Apr-15 08:44N 34°24' W 119°41'0 0.0
2018-Apr-15 08:20N 34°24' W 119°41'0 0.0
2018-Apr-15 07:44N 34°24' W 119°41'0 0.0
2018-Apr-15 06:47N 34°24' W 119°41'0 0.0
2018-Apr-15 06:23N 34°24' W 119°41'0 0.0
2018-Apr-15 05:56N 34°24' W 119°41'0 0.0
2018-Apr-15 04:05N 34°24' W 119°41'0 0.0
2018-Apr-15 02:35N 34°24' W 119°41'0 0.0
2018-Apr-15 02:23N 34°24' W 119°41'0 0.0
2018-Apr-15 01:41N 34°24' W 119°41'0 0.0
2018-Apr-15 01:29N 34°24' W 119°41'0 0.0
2018-Apr-15 00:56N 34°24' W 119°41'0 0.0
2018-Apr-15 00:29N 34°24' W 119°41'0 0.0
2018-Apr-14 23:53N 34°24' W 119°41'1 2.6
2018-Apr-14 23:28N 34°23' W 119°41'510.0
2018-Apr-14 22:59N 34°19' W 119°44'510.2
2018-Apr-14 22:30N 34°15' W 119°47'610.5
2018-Apr-14 21:55N 34°10' W 119°51'610.7
2018-Apr-14 21:22N 34°05' W 119°55'3 9.4
2018-Apr-14 21:01N 34°04' W 119°51'5 2.4
2018-Apr-14 18:52N 34°03' W 119°45'0 0.0
2018-Apr-14 18:22N 34°03' W 119°45'0 0.0
2018-Apr-14 17:34N 34°03' W 119°45'0 0.0
2018-Apr-14 17:19N 34°03' W 119°45'0 0.0
2018-Apr-14 16:49N 34°03' W 119°45'0 0.0
2018-Apr-14 16:22N 34°03' W 119°45'1 2.7
2018-Apr-14 15:59N 34°04' W 119°46'4 8.8
2018-Apr-14 15:30N 34°07' W 119°50'710.0
2018-Apr-14 14:49N 34°13' W 119°46'1 4.1
2018-Apr-14 14:30N 34°14' W 119°46'3 5.7
2018-Apr-14 13:57N 34°17' W 119°44'4 9.7
2018-Apr-14 13:29N 34°21' W 119°42'3 3.0
2018-Apr-14 12:23N 34°24' W 119°41'0 0.0
2018-Apr-14 11:14N 34°24' W 119°41'0 0.0
2018-Apr-14 10:53N 34°24' W 119°41'0 0.0
2018-Apr-14 09:11N 34°24' W 119°41'0 0.0
2018-Apr-14 08:11N 34°24' W 119°41'0 0.0
2018-Apr-14 07:47N 34°24' W 119°41'0 0.0
2018-Apr-14 07:17N 34°24' W 119°41'0 0.0
2018-Apr-14 00:59N 34°24' W 119°41'0 0.0
2018-Apr-14 00:20N 34°24' W 119°41'0 0.0
2018-Apr-13 23:53N 34°24' W 119°41'0 0.0
2018-Apr-13 23:29N 34°24' W 119°41'0 0.2
2018-Apr-13 22:55N 34°24' W 119°41'2 4.5
2018-Apr-13 22:30N 34°23' W 119°43'0 0.0
2018-Apr-13 18:56N 34°24' W 119°43'0 0.0
2018-Apr-13 16:32N 34°24' W 119°43'0 0.0
2018-Apr-13 16:20N 34°24' W 119°43'0 0.0
2018-Apr-13 15:22N 34°24' W 119°43'2 0.9
2018-Apr-13 13:32N 34°24' W 119°41'0 0.0
2018-Apr-13 13:14N 34°24' W 119°41'0 0.0
2018-Apr-13 11:20N 34°24' W 119°41'  
Track history (hours):
 
Tides and Currents Weather Stations Pressure Air Temp Water Temp Dewpoint Dewpoint Depression Visibility Wind Speed Wind Dir Waves Ship Positions

Conception

Owner: TRUTH AQUATICS, SANTA BARBARA, CA. More information available from US FCC via Universal Licensing System and Coast Guard Vessel Documentation Center.

Last reported at 2018-Apr-23 07:04 UTC. Time now 2018-Apr-23 07:54 UTC.
Position N 34°24' W 119°41'.

Length 24 m.

Type: Diving. MMSI: 367098480.

Date/timePositionNaut miles runAvg speedWind from/ knotsBaromVisibWave heightAir tempDewpointWater temp
2018-Apr-23 07:04N 34°24' W 119°41'0 0.0
2018-Apr-23 07:01N 34°24' W 119°41'0 0.0
2018-Apr-23 05:37N 34°24' W 119°41'0 0.0
2018-Apr-23 05:30N 34°24' W 119°41'0 0.0
2018-Apr-23 04:43N 34°24' W 119°41'0 0.0
2018-Apr-23 03:25N 34°24' W 119°41'0 0.0
2018-Apr-23 01:12N 34°24' W 119°41'0 0.0
2018-Apr-23 00:45N 34°24' W 119°41'0 0.0
2018-Apr-23 00:15N 34°24' W 119°41'0 0.1
2018-Apr-22 23:53N 34°24' W 119°41'3 7.6
2018-Apr-22 23:29N 34°21' W 119°41'510.2
2018-Apr-22 22:59N 34°16' W 119°42'510.4
2018-Apr-22 22:28N 34°11' W 119°43'510.3
2018-Apr-22 22:00N 34°06' W 119°45'3 4.5
2018-Apr-22 21:19N 34°03' W 119°45'0 0.0
2018-Apr-22 20:52N 34°03' W 119°45'0 0.0
2018-Apr-22 20:28N 34°03' W 119°45'0 0.0
2018-Apr-22 19:58N 34°03' W 119°45'0 0.0
2018-Apr-22 19:13N 34°03' W 119°45'0 0.0
2018-Apr-22 18:58N 34°03' W 119°45'0 0.0
2018-Apr-22 18:25N 34°03' W 119°45'0 0.0
2018-Apr-22 17:55N 34°03' W 119°45'0 0.0
2018-Apr-22 17:19N 34°03' W 119°45'0 0.0
2018-Apr-22 16:46N 34°03' W 119°45'0 0.0
2018-Apr-22 16:28N 34°03' W 119°45'0 0.0
2018-Apr-22 15:58N 34°03' W 119°45'0 0.0
2018-Apr-22 15:28N 34°03' W 119°45'1 3.1
2018-Apr-22 15:00N 34°03' W 119°44'5 9.4
2018-Apr-22 14:30N 34°03' W 119°38'5 9.5
2018-Apr-22 14:00N 34°03' W 119°32'1 0.1
2018-Apr-22 03:44N 34°02' W 119°31'0 1.0
2018-Apr-22 03:27N 34°02' W 119°31'4 0.3
2018-Apr-21 13:12N 34°05' W 119°34'210.0
2018-Apr-21 13:00N 34°07' W 119°34'5 9.8
2018-Apr-21 12:30N 34°12' W 119°35'6 9.8
2018-Apr-21 11:54N 34°17' W 119°38'6 9.9
2018-Apr-21 11:17N 34°23' W 119°40'2 1.9
2018-Apr-21 10:19N 34°24' W 119°41'0 0.0
2018-Apr-21 09:31N 34°24' W 119°41'0 0.0
2018-Apr-21 09:10N 34°24' W 119°41'0 0.0
2018-Apr-21 08:13N 34°24' W 119°41'0 0.0
2018-Apr-21 07:55N 34°24' W 119°41'0 0.0
2018-Apr-21 01:42N 34°24' W 119°41'0 0.0
2018-Apr-21 00:46N 34°24' W 119°41'0 0.0
2018-Apr-21 00:16N 34°24' W 119°41'0 0.0
2018-Apr-20 22:18N 34°24' W 119°41'0 0.0
2018-Apr-20 17:57N 34°24' W 119°41'0 0.0
2018-Apr-20 15:15N 34°24' W 119°41'0 0.0
2018-Apr-20 12:27N 34°24' W 119°41'0 0.0
2018-Apr-20 09:54N 34°24' W 119°41'0 0.0
2018-Apr-20 08:42N 34°24' W 119°41'0 0.0
2018-Apr-20 08:09N 34°24' W 119°41'0 0.0
2018-Apr-20 07:51N 34°24' W 119°41'0 0.0
2018-Apr-20 07:21N 34°24' W 119°41'0 0.0
2018-Apr-19 17:45N 34°24' W 119°41'0 0.0
2018-Apr-19 15:42N 34°24' W 119°41'0 0.0
2018-Apr-19 15:12N 34°24' W 119°41'0 0.0
2018-Apr-19 14:45N 34°24' W 119°41'0 0.0
2018-Apr-19 14:15N 34°24' W 119°41'0 0.0
2018-Apr-19 12:57N 34°24' W 119°41'0 0.0
2018-Apr-19 07:42N 34°24' W 119°41'0 0.0
2018-Apr-18 23:57N 34°24' W 119°41'0 0.0
2018-Apr-18 21:54N 34°24' W 119°41'0 0.0
2018-Apr-18 21:30N 34°24' W 119°41'0 0.0
2018-Apr-18 20:15N 34°24' W 119°41'0 0.0
2018-Apr-18 16:48N 34°24' W 119°41'0 0.0
2018-Apr-18 16:30N 34°24' W 119°41'0 0.0
2018-Apr-18 15:24N 34°24' W 119°41'0 0.0
2018-Apr-18 15:00N 34°24' W 119°41'0 0.0
2018-Apr-18 13:48N 34°24' W 119°41'0 0.0
2018-Apr-18 11:00N 34°24' W 119°41'0 0.0
2018-Apr-18 10:21N 34°24' W 119°41'0 0.0
2018-Apr-18 10:00N 34°24' W 119°41'0 0.0
2018-Apr-18 09:09N 34°24' W 119°41'0 0.0
2018-Apr-18 09:00N 34°24' W 119°41'0 0.0
2018-Apr-18 07:21N 34°24' W 119°41'0 0.0
2018-Apr-18 05:54N 34°24' W 119°41'0 0.0
2018-Apr-18 05:24N 34°24' W 119°41'0 0.0
2018-Apr-18 04:09N 34°24' W 119°41'0 0.0
2018-Apr-18 02:57N 34°24' W 119°41'0 0.0
2018-Apr-18 00:18N 34°24' W 119°41'0 0.0
2018-Apr-17 19:00N 34°24' W 119°41'0 0.0
2018-Apr-17 18:27N 34°24' W 119°41'0 0.0
2018-Apr-17 11:51N 34°24' W 119°41'0 0.0
2018-Apr-17 10:12N 34°24' W 119°41'0 0.0
2018-Apr-17 09:12N 34°24' W 119°41'0 0.0
2018-Apr-16 20:09N 34°24' W 119°41'0 0.0
2018-Apr-16 15:36N 34°24' W 119°41'0 0.0
2018-Apr-16 12:12N 34°24' W 119°41'0 0.0
2018-Apr-16 11:57N 34°24' W 119°41'0 0.0
2018-Apr-16 11:21N 34°24' W 119°41'0 0.0
2018-Apr-16 09:23N 34°24' W 119°41'0 0.0
2018-Apr-16 08:56N 34°24' W 119°41'0 0.0
2018-Apr-16 07:59N 34°24' W 119°41'0 0.0
2018-Apr-16 06:02N 34°24' W 119°41'0 0.0
2018-Apr-16 05:53N 34°24' W 119°41'0 0.0
2018-Apr-16 04:35N 34°24' W 119°41'0 0.0
2018-Apr-16 04:23N 34°24' W 119°41'0 0.0
2018-Apr-16 03:53N 34°24' W 119°41'0 0.0
2018-Apr-16 02:23N 34°24' W 119°41'0 0.0
2018-Apr-16 01:56N 34°24' W 119°41'0 0.0
2018-Apr-15 23:44N 34°24' W 119°41'0 0.0
2018-Apr-15 22:05N 34°24' W 119°41'0 0.0
2018-Apr-15 21:59N 34°24' W 119°41'0 0.0
2018-Apr-15 20:47N 34°24' W 119°41'0 0.0
2018-Apr-15 20:11N 34°24' W 119°41'0 0.0
2018-Apr-15 19:41N 34°24' W 119°41'0 0.0
2018-Apr-15 18:32N 34°24' W 119°41'0 0.0
2018-Apr-15 18:11N 34°24' W 119°41'0 0.0
2018-Apr-15 17:50N 34°24' W 119°41'0 0.0
2018-Apr-15 17:26N 34°24' W 119°41'0 0.0
2018-Apr-15 16:53N 34°24' W 119°41'0 0.0
2018-Apr-15 16:26N 34°24' W 119°41'0 0.0
2018-Apr-15 15:53N 34°24' W 119°41'0 0.0
2018-Apr-15 15:26N 34°24' W 119°41'0 0.0
2018-Apr-15 14:47N 34°24' W 119°41'0 0.0
2018-Apr-15 14:08N 34°24' W 119°41'0 0.0
2018-Apr-15 13:08N 34°24' W 119°41'0 0.0
2018-Apr-15 12:53N 34°24' W 119°41'0 0.0
2018-Apr-15 12:29N 34°24' W 119°41'0 0.0
2018-Apr-15 10:32N 34°24' W 119°41'0 0.0
2018-Apr-15 09:11N 34°24' W 119°41'0 0.0
2018-Apr-15 08:44N 34°24' W 119°41'0 0.0
2018-Apr-15 08:20N 34°24' W 119°41'0 0.0
2018-Apr-15 07:44N 34°24' W 119°41'0 0.0
2018-Apr-15 06:47N 34°24' W 119°41'0 0.0
2018-Apr-15 06:23N 34°24' W 119°41'0 0.0
2018-Apr-15 05:56N 34°24' W 119°41'0 0.0
2018-Apr-15 04:05N 34°24' W 119°41'0 0.0
2018-Apr-15 02:35N 34°24' W 119°41'0 0.0
2018-Apr-15 02:23N 34°24' W 119°41'0 0.0
2018-Apr-15 01:41N 34°24' W 119°41'0 0.0
2018-Apr-15 01:29N 34°24' W 119°41'0 0.0
2018-Apr-15 00:56N 34°24' W 119°41'0 0.0
2018-Apr-15 00:29N 34°24' W 119°41'0 0.0
2018-Apr-14 23:53N 34°24' W 119°41'1 2.6
2018-Apr-14 23:28N 34°23' W 119°41'510.0
2018-Apr-14 22:59N 34°19' W 119°44'510.2
2018-Apr-14 22:30N 34°15' W 119°47'610.5
2018-Apr-14 21:55N 34°10' W 119°51'610.7
2018-Apr-14 21:22N 34°05' W 119°55'3 9.4
2018-Apr-14 21:01N 34°04' W 119°51'5 2.4
2018-Apr-14 18:52N 34°03' W 119°45'0 0.0
2018-Apr-14 18:22N 34°03' W 119°45'0 0.0
2018-Apr-14 17:34N 34°03' W 119°45'0 0.0
2018-Apr-14 17:19N 34°03' W 119°45'0 0.0
2018-Apr-14 16:49N 34°03' W 119°45'0 0.0
2018-Apr-14 16:22N 34°03' W 119°45'1 2.7
2018-Apr-14 15:59N 34°04' W 119°46'4 8.8
2018-Apr-14 15:30N 34°07' W 119°50'710.0
2018-Apr-14 14:49N 34°13' W 119°46'1 4.1
2018-Apr-14 14:30N 34°14' W 119°46'3 5.7
2018-Apr-14 13:57N 34°17' W 119°44'4 9.7
2018-Apr-14 13:29N 34°21' W 119°42'3 3.0
2018-Apr-14 12:23N 34°24' W 119°41'0 0.0
2018-Apr-14 11:14N 34°24' W 119°41'0 0.0
2018-Apr-14 10:53N 34°24' W 119°41'0 0.0
2018-Apr-14 09:11N 34°24' W 119°41'0 0.0
2018-Apr-14 08:11N 34°24' W 119°41'0 0.0
2018-Apr-14 07:47N 34°24' W 119°41'0 0.0
2018-Apr-14 07:17N 34°24' W 119°41'0 0.0
2018-Apr-14 00:59N 34°24' W 119°41'0 0.0
2018-Apr-14 00:20N 34°24' W 119°41'0 0.0
2018-Apr-13 23:53N 34°24' W 119°41'0 0.0
2018-Apr-13 23:29N 34°24' W 119°41'0 0.2
2018-Apr-13 22:55N 34°24' W 119°41'2 4.5
2018-Apr-13 22:30N 34°23' W 119°43'0 0.0
2018-Apr-13 18:56N 34°24' W 119°43'0 0.0
2018-Apr-13 16:32N 34°24' W 119°43'0 0.0
2018-Apr-13 16:20N 34°24' W 119°43'0 0.0
2018-Apr-13 15:22N 34°24' W 119°43'2 0.9
2018-Apr-13 13:32N 34°24' W 119°41'0 0.0
2018-Apr-13 13:14N 34°24' W 119°41'0 0.0
2018-Apr-13 11:20N 34°24' W 119°41'  

Dump ship's entire track history